sensor_id;sensor_type;location;lat;lon;timestamp;P1;durP1;ratioP1;P2;durP2;ratioP2
43184;SDS011;28803;52.308;19.096;2022-10-04T00:07:15;8.35;;;3.00;;
43184;SDS011;28803;52.308;19.096;2022-10-04T00:12:26;6.45;;;2.22;;
43184;SDS011;28803;52.308;19.096;2022-10-04T00:15:04;11.88;;;2.65;;
43184;SDS011;28803;52.308;19.096;2022-10-04T00:17:43;6.05;;;2.22;;
43184;SDS011;28803;52.308;19.096;2022-10-04T00:25:57;13.30;;;3.30;;
43184;SDS011;28803;52.308;19.096;2022-10-04T00:31:05;9.77;;;3.08;;
43184;SDS011;28803;52.308;19.096;2022-10-04T00:33:42;11.38;;;2.30;;
43184;SDS011;28803;52.308;19.096;2022-10-04T00:36:36;10.85;;;3.30;;
43184;SDS011;28803;52.308;19.096;2022-10-04T00:39:12;9.65;;;2.05;;
43184;SDS011;28803;52.308;19.096;2022-10-04T00:41:52;8.35;;;2.60;;
43184;SDS011;28803;52.308;19.096;2022-10-04T00:44:28;7.40;;;3.10;;
43184;SDS011;28803;52.308;19.096;2022-10-04T00:50:28;7.60;;;2.08;;
43184;SDS011;28803;52.308;19.096;2022-10-04T00:52:56;11.15;;;2.97;;
43184;SDS011;28803;52.308;19.096;2022-10-04T00:55:30;5.70;;;2.45;;
43184;SDS011;28803;52.308;19.096;2022-10-04T00:58:11;9.40;;;2.60;;
43184;SDS011;28803;52.308;19.096;2022-10-04T01:00:44;4.28;;;2.05;;
43184;SDS011;28803;52.308;19.096;2022-10-04T01:03:17;5.97;;;2.10;;
43184;SDS011;28803;52.308;19.096;2022-10-04T01:05:57;6.95;;;2.70;;
43184;SDS011;28803;52.308;19.096;2022-10-04T01:08:32;9.00;;;2.72;;
43184;SDS011;28803;52.308;19.096;2022-10-04T01:14:12;10.90;;;2.53;;
43184;SDS011;28803;52.308;19.096;2022-10-04T01:16:53;8.00;;;2.22;;
43184;SDS011;28803;52.308;19.096;2022-10-04T01:24:37;7.38;;;2.45;;
43184;SDS011;28803;52.308;19.096;2022-10-04T01:30:13;4.00;;;2.50;;
43184;SDS011;28803;52.308;19.096;2022-10-04T01:32:41;9.18;;;3.03;;
43184;SDS011;28803;52.308;19.096;2022-10-04T01:35:11;10.30;;;2.08;;
43184;SDS011;28803;52.308;19.096;2022-10-04T01:37:40;10.80;;;1.92;;
43184;SDS011;28803;52.308;19.096;2022-10-04T01:40:07;11.80;;;2.65;;
43184;SDS011;28803;52.308;19.096;2022-10-04T01:42:38;10.00;;;1.83;;
43184;SDS011;28803;52.308;19.096;2022-10-04T01:47:47;11.20;;;1.77;;
43184;SDS011;28803;52.308;19.096;2022-10-04T01:50:23;12.18;;;2.08;;
43184;SDS011;28803;52.308;19.096;2022-10-04T01:53:17;6.50;;;3.03;;
43184;SDS011;28803;52.308;19.096;2022-10-04T01:55:49;10.60;;;2.00;;
43184;SDS011;28803;52.308;19.096;2022-10-04T01:58:21;6.07;;;2.40;;
43184;SDS011;28803;52.308;19.096;2022-10-04T02:00:56;9.20;;;2.55;;
43184;SDS011;28803;52.308;19.096;2022-10-04T02:03:28;8.40;;;2.40;;
43184;SDS011;28803;52.308;19.096;2022-10-04T02:06:03;6.45;;;3.72;;
43184;SDS011;28803;52.308;19.096;2022-10-04T02:08:34;8.07;;;2.45;;
43184;SDS011;28803;52.308;19.096;2022-10-04T02:11:05;6.68;;;2.95;;
43184;SDS011;28803;52.308;19.096;2022-10-04T02:13:33;11.63;;;1.98;;
43184;SDS011;28803;52.308;19.096;2022-10-04T02:16:09;10.45;;;2.33;;
43184;SDS011;28803;52.308;19.096;2022-10-04T02:18:37;9.48;;;1.63;;
43184;SDS011;28803;52.308;19.096;2022-10-04T02:21:07;5.88;;;2.15;;
43184;SDS011;28803;52.308;19.096;2022-10-04T02:23:35;5.05;;;1.30;;
43184;SDS011;28803;52.308;19.096;2022-10-04T02:26:04;6.85;;;2.15;;
43184;SDS011;28803;52.308;19.096;2022-10-04T02:28:32;8.30;;;1.80;;
43184;SDS011;28803;52.308;19.096;2022-10-04T02:31:00;3.67;;;1.92;;
43184;SDS011;28803;52.308;19.096;2022-10-04T02:33:48;11.00;;;3.17;;
43184;SDS011;28803;52.308;19.096;2022-10-04T02:36:16;8.45;;;2.40;;
43184;SDS011;28803;52.308;19.096;2022-10-04T02:38:48;8.75;;;3.30;;
43184;SDS011;28803;52.308;19.096;2022-10-04T02:46:50;5.95;;;2.45;;
43184;SDS011;28803;52.308;19.096;2022-10-04T02:49:37;7.95;;;2.72;;
43184;SDS011;28803;52.308;19.096;2022-10-04T02:52:14;5.43;;;2.83;;
43184;SDS011;28803;52.308;19.096;2022-10-04T02:57:30;9.52;;;2.33;;
43184;SDS011;28803;52.308;19.096;2022-10-04T03:00:12;9.25;;;3.35;;
43184;SDS011;28803;52.308;19.096;2022-10-04T03:03:08;7.72;;;1.90;;
43184;SDS011;28803;52.308;19.096;2022-10-04T03:08:33;6.40;;;1.92;;
43184;SDS011;28803;52.308;19.096;2022-10-04T03:11:10;6.22;;;2.13;;
43184;SDS011;28803;52.308;19.096;2022-10-04T03:13:39;6.85;;;2.13;;
43184;SDS011;28803;52.308;19.096;2022-10-04T03:16:10;9.65;;;2.45;;
43184;SDS011;28803;52.308;19.096;2022-10-04T03:18:37;11.45;;;3.13;;
43184;SDS011;28803;52.308;19.096;2022-10-04T03:21:06;6.05;;;1.83;;
43184;SDS011;28803;52.308;19.096;2022-10-04T03:23:35;4.57;;;1.42;;
43184;SDS011;28803;52.308;19.096;2022-10-04T03:28:55;7.22;;;1.58;;
43184;SDS011;28803;52.308;19.096;2022-10-04T03:31:24;12.00;;;3.33;;
43184;SDS011;28803;52.308;19.096;2022-10-04T03:33:53;4.13;;;1.60;;
43184;SDS011;28803;52.308;19.096;2022-10-04T03:36:22;8.50;;;2.35;;
43184;SDS011;28803;52.308;19.096;2022-10-04T03:38:51;6.85;;;1.92;;
43184;SDS011;28803;52.308;19.096;2022-10-04T03:41:21;12.52;;;2.80;;
43184;SDS011;28803;52.308;19.096;2022-10-04T03:43:51;8.02;;;2.35;;
43184;SDS011;28803;52.308;19.096;2022-10-04T03:46:21;4.80;;;1.90;;
43184;SDS011;28803;52.308;19.096;2022-10-04T03:48:51;10.93;;;2.92;;
43184;SDS011;28803;52.308;19.096;2022-10-04T03:51:21;12.63;;;2.88;;
43184;SDS011;28803;52.308;19.096;2022-10-04T03:53:56;9.45;;;3.47;;
43184;SDS011;28803;52.308;19.096;2022-10-04T03:56:30;11.85;;;4.25;;
43184;SDS011;28803;52.308;19.096;2022-10-04T03:59:01;11.63;;;3.55;;
43184;SDS011;28803;52.308;19.096;2022-10-04T04:01:38;9.98;;;4.82;;
43184;SDS011;28803;52.308;19.096;2022-10-04T04:04:12;10.30;;;3.75;;
43184;SDS011;28803;52.308;19.096;2022-10-04T04:10:00;8.18;;;3.70;;
43184;SDS011;28803;52.308;19.096;2022-10-04T04:15:29;6.97;;;3.95;;
43184;SDS011;28803;52.308;19.096;2022-10-04T04:17:58;12.20;;;4.15;;
43184;SDS011;28803;52.308;19.096;2022-10-04T04:20:38;11.30;;;4.05;;
43184;SDS011;28803;52.308;19.096;2022-10-04T04:23:22;11.60;;;5.57;;
43184;SDS011;28803;52.308;19.096;2022-10-04T04:25:53;10.40;;;5.03;;
43184;SDS011;28803;52.308;19.096;2022-10-04T04:28:33;19.67;;;5.47;;
43184;SDS011;28803;52.308;19.096;2022-10-04T04:31:09;9.73;;;5.15;;
43184;SDS011;28803;52.308;19.096;2022-10-04T04:33:57;13.93;;;6.47;;
43184;SDS011;28803;52.308;19.096;2022-10-04T04:36:27;14.02;;;5.00;;
43184;SDS011;28803;52.308;19.096;2022-10-04T04:42:04;16.17;;;7.95;;
43184;SDS011;28803;52.308;19.096;2022-10-04T04:44:45;16.10;;;7.32;;
43184;SDS011;28803;52.308;19.096;2022-10-04T04:53:06;27.63;;;8.68;;
43184;SDS011;28803;52.308;19.096;2022-10-04T04:55:42;17.00;;;7.00;;
43184;SDS011;28803;52.308;19.096;2022-10-04T04:58:31;23.88;;;9.15;;
43184;SDS011;28803;52.308;19.096;2022-10-04T05:01:03;19.10;;;9.75;;
43184;SDS011;28803;52.308;19.096;2022-10-04T05:03:34;22.25;;;8.98;;
43184;SDS011;28803;52.308;19.096;2022-10-04T05:06:01;13.88;;;7.97;;
43184;SDS011;28803;52.308;19.096;2022-10-04T05:08:31;15.25;;;7.95;;
43184;SDS011;28803;52.308;19.096;2022-10-04T05:14:16;21.45;;;8.02;;
43184;SDS011;28803;52.308;19.096;2022-10-04T05:16:48;17.75;;;7.32;;
43184;SDS011;28803;52.308;19.096;2022-10-04T05:21:56;13.90;;;7.38;;
43184;SDS011;28803;52.308;19.096;2022-10-04T05:24:28;12.63;;;6.32;;
43184;SDS011;28803;52.308;19.096;2022-10-04T05:27:00;11.48;;;5.28;;
43184;SDS011;28803;52.308;19.096;2022-10-04T05:29:31;11.20;;;6.43;;
43184;SDS011;28803;52.308;19.096;2022-10-04T05:35:21;11.85;;;4.97;;
43184;SDS011;28803;52.308;19.096;2022-10-04T05:43:01;6.82;;;3.63;;
43184;SDS011;28803;52.308;19.096;2022-10-04T05:45:45;5.78;;;2.90;;
43184;SDS011;28803;52.308;19.096;2022-10-04T05:48:12;8.88;;;2.95;;
43184;SDS011;28803;52.308;19.096;2022-10-04T05:50:41;7.90;;;3.25;;
43184;SDS011;28803;52.308;19.096;2022-10-04T05:56:16;11.40;;;3.53;;
43184;SDS011;28803;52.308;19.096;2022-10-04T06:01:55;10.25;;;4.97;;
43184;SDS011;28803;52.308;19.096;2022-10-04T06:04:46;8.98;;;3.60;;
43184;SDS011;28803;52.308;19.096;2022-10-04T06:07:22;12.82;;;2.70;;
43184;SDS011;28803;52.308;19.096;2022-10-04T06:12:45;11.57;;;3.50;;
43184;SDS011;28803;52.308;19.096;2022-10-04T06:21:33;9.05;;;4.82;;
43184;SDS011;28803;52.308;19.096;2022-10-04T06:24:28;11.63;;;4.43;;
43184;SDS011;28803;52.308;19.096;2022-10-04T06:27:04;10.85;;;4.38;;
43184;SDS011;28803;52.308;19.096;2022-10-04T06:29:58;7.72;;;3.58;;
43184;SDS011;28803;52.308;19.096;2022-10-04T06:43:54;10.55;;;2.88;;
43184;SDS011;28803;52.308;19.096;2022-10-04T06:46:33;3.22;;;1.60;;
43184;SDS011;28803;52.308;19.096;2022-10-04T07:03:34;12.48;;;3.10;;
43184;SDS011;28803;52.308;19.096;2022-10-04T07:06:06;6.53;;;3.28;;
43184;SDS011;28803;52.308;19.096;2022-10-04T07:08:49;8.13;;;4.43;;
43184;SDS011;28803;52.308;19.096;2022-10-04T07:14:11;9.32;;;4.50;;
43184;SDS011;28803;52.308;19.096;2022-10-04T07:27:57;10.02;;;5.07;;
43184;SDS011;28803;52.308;19.096;2022-10-04T07:30:58;12.27;;;5.05;;
43184;SDS011;28803;52.308;19.096;2022-10-04T07:33:30;10.65;;;5.22;;
43184;SDS011;28803;52.308;19.096;2022-10-04T07:38:47;15.70;;;6.95;;
43184;SDS011;28803;52.308;19.096;2022-10-04T07:41:25;9.88;;;5.80;;
43184;SDS011;28803;52.308;19.096;2022-10-04T07:44:06;11.60;;;5.47;;
43184;SDS011;28803;52.308;19.096;2022-10-04T07:49:25;10.23;;;5.00;;
43184;SDS011;28803;52.308;19.096;2022-10-04T07:51:58;8.18;;;4.35;;
43184;SDS011;28803;52.308;19.096;2022-10-04T07:54:36;11.98;;;5.05;;
43184;SDS011;28803;52.308;19.096;2022-10-04T08:05:35;11.63;;;6.00;;
43184;SDS011;28803;52.308;19.096;2022-10-04T08:13:49;8.25;;;3.72;;
43184;SDS011;28803;52.308;19.096;2022-10-04T08:22:17;8.90;;;5.15;;
43184;SDS011;28803;52.308;19.096;2022-10-04T08:24:57;9.68;;;3.80;;
43184;SDS011;28803;52.308;19.096;2022-10-04T08:36:29;8.93;;;4.15;;
43184;SDS011;28803;52.308;19.096;2022-10-04T08:39:00;6.07;;;3.55;;
43184;SDS011;28803;52.308;19.096;2022-10-04T09:06:53;6.70;;;2.42;;
43184;SDS011;28803;52.308;19.096;2022-10-04T09:15:28;7.47;;;3.03;;
43184;SDS011;28803;52.308;19.096;2022-10-04T09:18:36;7.85;;;2.38;;
43184;SDS011;28803;52.308;19.096;2022-10-04T09:21:39;7.55;;;3.17;;
43184;SDS011;28803;52.308;19.096;2022-10-04T09:27:22;9.30;;;3.08;;
43184;SDS011;28803;52.308;19.096;2022-10-04T09:30:21;6.38;;;2.85;;
43184;SDS011;28803;52.308;19.096;2022-10-04T09:38:47;7.30;;;3.30;;
43184;SDS011;28803;52.308;19.096;2022-10-04T09:42:03;6.38;;;3.22;;
43184;SDS011;28803;52.308;19.096;2022-10-04T09:50:15;6.82;;;3.15;;
43184;SDS011;28803;52.308;19.096;2022-10-04T09:53:18;10.45;;;3.92;;
43184;SDS011;28803;52.308;19.096;2022-10-04T10:07:51;5.30;;;2.83;;
43184;SDS011;28803;52.308;19.096;2022-10-04T10:10:55;7.15;;;3.80;;
43184;SDS011;28803;52.308;19.096;2022-10-04T10:22:44;5.85;;;2.67;;
43184;SDS011;28803;52.308;19.096;2022-10-04T10:30:47;4.38;;;3.15;;
43184;SDS011;28803;52.308;19.096;2022-10-04T10:45:11;3.30;;;1.38;;
43184;SDS011;28803;52.308;19.096;2022-10-04T10:48:03;3.53;;;2.25;;
43184;SDS011;28803;52.308;19.096;2022-10-04T10:58:48;9.70;;;2.33;;
43184;SDS011;28803;52.308;19.096;2022-10-04T11:01:39;3.25;;;1.58;;
43184;SDS011;28803;52.308;19.096;2022-10-04T11:09:30;4.90;;;2.28;;
43184;SDS011;28803;52.308;19.096;2022-10-04T11:12:17;5.97;;;2.78;;
43184;SDS011;28803;52.308;19.096;2022-10-04T11:27:08;5.35;;;2.75;;
43184;SDS011;28803;52.308;19.096;2022-10-04T11:38:09;6.38;;;1.58;;
43184;SDS011;28803;52.308;19.096;2022-10-04T12:00:05;2.22;;;0.65;;
43184;SDS011;28803;52.308;19.096;2022-10-04T12:05:22;3.97;;;1.08;;
43184;SDS011;28803;52.308;19.096;2022-10-04T12:08:02;2.70;;;1.05;;
43184;SDS011;28803;52.308;19.096;2022-10-04T12:25:46;2.67;;;0.82;;
43184;SDS011;28803;52.308;19.096;2022-10-04T12:27:59;3.65;;;0.95;;
43184;SDS011;28803;52.308;19.096;2022-10-04T12:34:04;2.38;;;1.02;;
43184;SDS011;28803;52.308;19.096;2022-10-04T12:44:50;3.00;;;1.10;;
43184;SDS011;28803;52.308;19.096;2022-10-04T13:01:46;8.35;;;1.10;;
43184;SDS011;28803;52.308;19.096;2022-10-04T13:27:36;4.93;;;0.70;;
43184;SDS011;28803;52.308;19.096;2022-10-04T13:30:21;0.63;;;0.30;;
43184;SDS011;28803;52.308;19.096;2022-10-04T13:35:42;3.13;;;0.50;;
43184;SDS011;28803;52.308;19.096;2022-10-04T13:41:02;1.45;;;0.50;;
43184;SDS011;28803;52.308;19.096;2022-10-04T13:58:46;1.42;;;0.40;;
43184;SDS011;28803;52.308;19.096;2022-10-04T14:26:37;1.20;;;0.45;;
43184;SDS011;28803;52.308;19.096;2022-10-04T14:29:38;4.78;;;0.55;;
43184;SDS011;28803;52.308;19.096;2022-10-04T14:35:22;3.55;;;0.50;;
43184;SDS011;28803;52.308;19.096;2022-10-04T14:48:59;2.30;;;0.50;;
43184;SDS011;28803;52.308;19.096;2022-10-04T14:59:45;2.25;;;0.68;;
43184;SDS011;28803;52.308;19.096;2022-10-04T15:11:03;2.03;;;0.60;;
43184;SDS011;28803;52.308;19.096;2022-10-04T15:13:36;1.60;;;0.60;;
43184;SDS011;28803;52.308;19.096;2022-10-04T15:16:30;2.38;;;0.63;;
43184;SDS011;28803;52.308;19.096;2022-10-04T15:19:09;1.52;;;0.60;;
43184;SDS011;28803;52.308;19.096;2022-10-04T15:24:50;1.52;;;0.40;;
43184;SDS011;28803;52.308;19.096;2022-10-04T15:30:00;3.22;;;0.70;;
43184;SDS011;28803;52.308;19.096;2022-10-04T15:32:36;1.50;;;0.52;;
43184;SDS011;28803;52.308;19.096;2022-10-04T15:58:33;6.38;;;1.23;;
43184;SDS011;28803;52.308;19.096;2022-10-04T16:10:11;7.45;;;2.55;;
43184;SDS011;28803;52.308;19.096;2022-10-04T16:13:04;4.25;;;2.17;;
43184;SDS011;28803;52.308;19.096;2022-10-04T16:16:15;4.97;;;2.72;;
43184;SDS011;28803;52.308;19.096;2022-10-04T16:18:48;7.53;;;3.50;;
43184;SDS011;28803;52.308;19.096;2022-10-04T16:21:43;15.65;;;7.53;;
43184;SDS011;28803;52.308;19.096;2022-10-04T16:31:57;54.03;;;24.98;;
43184;SDS011;28803;52.308;19.096;2022-10-04T16:37:12;12.32;;;6.70;;
43184;SDS011;28803;52.308;19.096;2022-10-04T16:39:50;9.25;;;4.45;;
43184;SDS011;28803;52.308;19.096;2022-10-04T16:47:33;8.40;;;3.13;;
43184;SDS011;28803;52.308;19.096;2022-10-04T16:56:28;7.50;;;3.63;;
43184;SDS011;28803;52.308;19.096;2022-10-04T16:59:02;7.78;;;3.95;;
43184;SDS011;28803;52.308;19.096;2022-10-04T17:01:41;16.63;;;8.13;;
43184;SDS011;28803;52.308;19.096;2022-10-04T17:07:06;11.45;;;6.68;;
43184;SDS011;28803;52.308;19.096;2022-10-04T17:12:43;13.07;;;5.70;;
43184;SDS011;28803;52.308;19.096;2022-10-04T17:15:24;26.02;;;7.88;;
43184;SDS011;28803;52.308;19.096;2022-10-04T17:18:16;28.00;;;9.60;;
43184;SDS011;28803;52.308;19.096;2022-10-04T17:20:48;13.32;;;6.47;;
43184;SDS011;28803;52.308;19.096;2022-10-04T17:23:33;8.88;;;4.18;;
43184;SDS011;28803;52.308;19.096;2022-10-04T17:26:07;11.82;;;5.03;;
43184;SDS011;28803;52.308;19.096;2022-10-04T17:28:56;11.98;;;5.18;;
43184;SDS011;28803;52.308;19.096;2022-10-04T17:36:51;12.82;;;4.05;;
43184;SDS011;28803;52.308;19.096;2022-10-04T17:42:14;11.20;;;6.35;;
43184;SDS011;28803;52.308;19.096;2022-10-04T17:50:52;14.00;;;7.45;;
43184;SDS011;28803;52.308;19.096;2022-10-04T17:59:30;21.75;;;8.23;;
43184;SDS011;28803;52.308;19.096;2022-10-04T18:02:09;22.70;;;8.80;;
43184;SDS011;28803;52.308;19.096;2022-10-04T18:04:49;22.15;;;10.77;;
43184;SDS011;28803;52.308;19.096;2022-10-04T18:07:23;23.42;;;8.75;;
43184;SDS011;28803;52.308;19.096;2022-10-04T18:10:00;18.40;;;7.82;;
43184;SDS011;28803;52.308;19.096;2022-10-04T18:13:04;20.80;;;7.30;;
43184;SDS011;28803;52.308;19.096;2022-10-04T18:18:41;16.63;;;7.40;;
43184;SDS011;28803;52.308;19.096;2022-10-04T18:21:28;14.43;;;6.68;;
43184;SDS011;28803;52.308;19.096;2022-10-04T18:23:58;14.38;;;6.20;;
43184;SDS011;28803;52.308;19.096;2022-10-04T18:26:29;20.67;;;7.57;;
43184;SDS011;28803;52.308;19.096;2022-10-04T18:28:59;15.32;;;5.60;;
43184;SDS011;28803;52.308;19.096;2022-10-04T18:31:36;11.27;;;5.07;;
43184;SDS011;28803;52.308;19.096;2022-10-04T18:34:15;16.63;;;6.57;;
43184;SDS011;28803;52.308;19.096;2022-10-04T18:37:04;17.63;;;7.13;;
43184;SDS011;28803;52.308;19.096;2022-10-04T18:39:47;18.30;;;7.60;;
43184;SDS011;28803;52.308;19.096;2022-10-04T18:42:22;14.90;;;7.10;;
43184;SDS011;28803;52.308;19.096;2022-10-04T18:44:58;15.00;;;7.20;;
43184;SDS011;28803;52.308;19.096;2022-10-04T18:49:59;12.10;;;6.68;;
43184;SDS011;28803;52.308;19.096;2022-10-04T18:52:34;21.02;;;7.30;;
43184;SDS011;28803;52.308;19.096;2022-10-04T18:55:16;19.65;;;7.75;;
43184;SDS011;28803;52.308;19.096;2022-10-04T18:57:57;16.58;;;7.65;;
43184;SDS011;28803;52.308;19.096;2022-10-04T19:04:25;15.85;;;7.22;;
43184;SDS011;28803;52.308;19.096;2022-10-04T19:07:15;14.57;;;6.40;;
43184;SDS011;28803;52.308;19.096;2022-10-04T19:12:23;15.27;;;7.38;;
43184;SDS011;28803;52.308;19.096;2022-10-04T19:25:58;20.23;;;8.77;;
43184;SDS011;28803;52.308;19.096;2022-10-04T19:28:59;19.95;;;9.05;;
43184;SDS011;28803;52.308;19.096;2022-10-04T19:32:19;25.40;;;10.70;;
43184;SDS011;28803;52.308;19.096;2022-10-04T19:37:22;20.88;;;9.30;;
43184;SDS011;28803;52.308;19.096;2022-10-04T19:42:41;19.20;;;9.40;;
43184;SDS011;28803;52.308;19.096;2022-10-04T19:45:15;20.50;;;10.00;;
43184;SDS011;28803;52.308;19.096;2022-10-04T19:47:52;22.75;;;9.68;;
43184;SDS011;28803;52.308;19.096;2022-10-04T19:52:55;24.30;;;10.75;;
43184;SDS011;28803;52.308;19.096;2022-10-04T20:00:56;25.33;;;10.98;;
43184;SDS011;28803;52.308;19.096;2022-10-04T20:03:23;28.02;;;11.75;;
43184;SDS011;28803;52.308;19.096;2022-10-04T20:05:51;23.80;;;11.35;;
43184;SDS011;28803;52.308;19.096;2022-10-04T20:11:44;25.58;;;11.70;;
43184;SDS011;28803;52.308;19.096;2022-10-04T20:19:19;24.95;;;11.18;;
43184;SDS011;28803;52.308;19.096;2022-10-04T20:35:00;18.10;;;9.20;;
43184;SDS011;28803;52.308;19.096;2022-10-04T20:40:10;17.92;;;8.00;;
43184;SDS011;28803;52.308;19.096;2022-10-04T20:45:43;15.95;;;7.90;;
43184;SDS011;28803;52.308;19.096;2022-10-04T20:48:18;20.60;;;9.07;;
43184;SDS011;28803;52.308;19.096;2022-10-04T20:50:50;18.02;;;7.32;;
43184;SDS011;28803;52.308;19.096;2022-10-04T20:53:19;23.85;;;7.82;;
43184;SDS011;28803;52.308;19.096;2022-10-04T20:55:49;20.13;;;7.68;;
43184;SDS011;28803;52.308;19.096;2022-10-04T21:00:55;14.57;;;7.20;;
43184;SDS011;28803;52.308;19.096;2022-10-04T21:03:23;15.57;;;7.10;;
43184;SDS011;28803;52.308;19.096;2022-10-04T21:05:58;21.17;;;7.97;;
43184;SDS011;28803;52.308;19.096;2022-10-04T21:08:32;16.70;;;6.97;;
43184;SDS011;28803;52.308;19.096;2022-10-04T21:11:11;20.55;;;8.65;;
43184;SDS011;28803;52.308;19.096;2022-10-04T21:13:58;14.60;;;6.85;;
43184;SDS011;28803;52.308;19.096;2022-10-04T21:27:08;17.95;;;7.22;;
43184;SDS011;28803;52.308;19.096;2022-10-04T21:29:37;15.88;;;7.10;;
43184;SDS011;28803;52.308;19.096;2022-10-04T21:32:04;13.88;;;7.00;;
43184;SDS011;28803;52.308;19.096;2022-10-04T21:34:32;15.95;;;6.13;;
43184;SDS011;28803;52.308;19.096;2022-10-04T21:37:19;12.70;;;6.68;;
43184;SDS011;28803;52.308;19.096;2022-10-04T21:39:46;15.48;;;6.75;;
43184;SDS011;28803;52.308;19.096;2022-10-04T21:42:13;17.23;;;6.65;;
43184;SDS011;28803;52.308;19.096;2022-10-04T21:44:40;15.38;;;6.85;;
43184;SDS011;28803;52.308;19.096;2022-10-04T21:47:07;14.05;;;6.20;;
43184;SDS011;28803;52.308;19.096;2022-10-04T21:49:35;16.85;;;6.13;;
43184;SDS011;28803;52.308;19.096;2022-10-04T21:52:02;16.50;;;6.75;;
43184;SDS011;28803;52.308;19.096;2022-10-04T21:54:29;10.25;;;5.22;;
43184;SDS011;28803;52.308;19.096;2022-10-04T21:56:56;18.20;;;7.18;;
43184;SDS011;28803;52.308;19.096;2022-10-04T21:59:23;15.40;;;5.60;;
43184;SDS011;28803;52.308;19.096;2022-10-04T22:01:51;14.50;;;5.97;;
43184;SDS011;28803;52.308;19.096;2022-10-04T22:04:18;15.93;;;6.95;;
43184;SDS011;28803;52.308;19.096;2022-10-04T22:06:45;12.85;;;6.82;;
43184;SDS011;28803;52.308;19.096;2022-10-04T22:09:12;13.07;;;6.22;;
43184;SDS011;28803;52.308;19.096;2022-10-04T22:11:39;13.65;;;7.05;;
43184;SDS011;28803;52.308;19.096;2022-10-04T22:14:06;16.10;;;6.68;;
43184;SDS011;28803;52.308;19.096;2022-10-04T22:16:33;15.20;;;6.20;;
43184;SDS011;28803;52.308;19.096;2022-10-04T22:19:00;13.90;;;7.63;;
43184;SDS011;28803;52.308;19.096;2022-10-04T22:21:27;12.90;;;6.95;;
43184;SDS011;28803;52.308;19.096;2022-10-04T22:23:54;14.68;;;6.60;;
43184;SDS011;28803;52.308;19.096;2022-10-04T22:26:22;10.40;;;5.65;;
43184;SDS011;28803;52.308;19.096;2022-10-04T22:28:52;14.35;;;6.80;;
43184;SDS011;28803;52.308;19.096;2022-10-04T22:31:23;9.10;;;5.45;;
43184;SDS011;28803;52.308;19.096;2022-10-04T22:33:52;13.05;;;6.20;;
43184;SDS011;28803;52.308;19.096;2022-10-04T22:36:25;14.73;;;6.45;;
43184;SDS011;28803;52.308;19.096;2022-10-04T22:41:36;17.80;;;6.20;;
43184;SDS011;28803;52.308;19.096;2022-10-04T22:44:13;16.10;;;6.63;;
43184;SDS011;28803;52.308;19.096;2022-10-04T22:46:46;12.95;;;6.05;;
43184;SDS011;28803;52.308;19.096;2022-10-04T22:49:18;10.45;;;5.88;;
43184;SDS011;28803;52.308;19.096;2022-10-04T22:51:48;14.35;;;6.05;;
43184;SDS011;28803;52.308;19.096;2022-10-04T22:54:18;13.57;;;6.80;;
43184;SDS011;28803;52.308;19.096;2022-10-04T22:56:48;14.15;;;6.20;;
43184;SDS011;28803;52.308;19.096;2022-10-04T22:59:16;14.98;;;6.50;;
43184;SDS011;28803;52.308;19.096;2022-10-04T23:01:45;15.38;;;6.30;;
43184;SDS011;28803;52.308;19.096;2022-10-04T23:04:20;15.45;;;6.40;;
43184;SDS011;28803;52.308;19.096;2022-10-04T23:06:49;13.70;;;6.95;;
43184;SDS011;28803;52.308;19.096;2022-10-04T23:09:17;13.73;;;7.10;;
43184;SDS011;28803;52.308;19.096;2022-10-04T23:11:45;15.55;;;7.60;;
43184;SDS011;28803;52.308;19.096;2022-10-04T23:14:12;13.82;;;7.40;;
43184;SDS011;28803;52.308;19.096;2022-10-04T23:16:39;13.55;;;6.43;;
43184;SDS011;28803;52.308;19.096;2022-10-04T23:19:10;14.32;;;6.80;;
43184;SDS011;28803;52.308;19.096;2022-10-04T23:21:39;13.00;;;6.88;;
43184;SDS011;28803;52.308;19.096;2022-10-04T23:24:16;14.60;;;6.97;;
43184;SDS011;28803;52.308;19.096;2022-10-04T23:26:46;15.77;;;6.47;;
43184;SDS011;28803;52.308;19.096;2022-10-04T23:29:25;14.82;;;6.47;;
43184;SDS011;28803;52.308;19.096;2022-10-04T23:31:55;17.17;;;6.97;;
43184;SDS011;28803;52.308;19.096;2022-10-04T23:34:27;15.50;;;6.80;;
43184;SDS011;28803;52.308;19.096;2022-10-04T23:36:59;14.73;;;7.10;;
43184;SDS011;28803;52.308;19.096;2022-10-04T23:39:27;16.65;;;6.88;;
43184;SDS011;28803;52.308;19.096;2022-10-04T23:41:57;13.50;;;7.35;;
43184;SDS011;28803;52.308;19.096;2022-10-04T23:44:34;15.30;;;7.95;;
43184;SDS011;28803;52.308;19.096;2022-10-04T23:47:07;16.02;;;7.25;;
43184;SDS011;28803;52.308;19.096;2022-10-04T23:49:40;16.50;;;6.47;;
43184;SDS011;28803;52.308;19.096;2022-10-04T23:52:25;11.70;;;6.90;;
43184;SDS011;28803;52.308;19.096;2022-10-04T23:55:10;17.00;;;6.82;;
43184;SDS011;28803;52.308;19.096;2022-10-04T23:57:42;16.05;;;5.97;;
